Time;durP1;ratioP1;P1;durP2;ratioP2;P2;SDS_P1;SDS_P2;PMS_P1;PMS_P2;Temp;Humidity;BMP_temperature;BMP_pressure;BME280_temperature;BME280_humidity;BME280_pressure;Samples;Min_cycle;Max_cycle;Signal;HPM_P1;HPM_P2
2022/02/26 00:00:28;;;;;;;25.63;6.80;;;;;;;6.13;73.74;102238.16;4983654;28;20176;-67
2022/02/26 00:02:53;;;;;;;25.23;7.00;;;;;;;6.17;73.82;102237.50;5000492;28;20482;-68
2022/02/26 00:05:19;;;;;;;19.87;6.80;;;;;;;6.43;73.96;102242.22;5000916;28;20199;-67
2022/02/26 00:07:44;;;;;;;20.57;6.07;;;;;;;6.36;73.73;102247.09;4999910;28;20496;-67
2022/02/26 00:10:10;;;;;;;26.80;7.20;;;;;;;6.48;73.03;102243.34;5000336;28;20556;-67
2022/02/26 00:12:35;;;;;;;25.87;7.10;;;;;;;6.32;73.15;102236.47;5000591;28;20175;-66
2022/02/26 00:15:01;;;;;;;19.20;6.53;;;;;;;6.13;73.62;102245.91;4999452;28;20255;-67
2022/02/26 00:17:26;;;;;;;20.10;6.87;;;;;;;6.27;74.07;102251.81;4999999;28;20643;-67
2022/02/26 00:19:51;;;;;;;21.03;6.70;;;;;;;6.09;73.93;102258.59;5000400;28;20214;-67
2022/02/26 00:22:16;;;;;;;24.13;7.90;;;;;;;6.05;74.00;102261.03;5000077;28;20207;-67
2022/02/26 00:24:42;;;;;;;29.80;7.80;;;;;;;5.97;74.23;102271.78;4999747;28;20215;-68
2022/02/26 00:27:07;;;;;;;34.47;7.80;;;;;;;6.44;74.15;102270.81;4980315;28;20176;-66
2022/02/26 00:29:34;;;;;;;21.90;6.77;;;;;;;6.35;73.13;102270.34;4980441;28;20362;-67
2022/02/26 00:32:01;;;;;;;29.67;8.57;;;;;;;6.23;73.11;102273.19;4979699;28;20223;-68
2022/02/26 00:34:26;;;;;;;23.83;6.80;;;;;;;5.96;73.68;102273.47;4980602;28;20408;-67
2022/02/26 00:36:52;;;;;;;29.87;7.63;;;;;;;6.26;73.28;102278.50;4980385;28;20797;-67
2022/02/26 00:39:18;;;;;;;30.23;7.07;;;;;;;6.19;73.63;102284.19;4981758;28;20495;-68
2022/02/26 00:41:43;;;;;;;25.80;7.37;;;;;;;6.22;73.41;102285.25;4980910;28;20460;-67
2022/02/26 00:44:09;;;;;;;28.37;7.27;;;;;;;6.16;73.70;102289.22;4979969;28;20476;-69
2022/02/26 00:46:35;;;;;;;31.50;10.27;;;;;;;6.15;73.03;102296.06;4979212;28;20272;-67
2022/02/26 00:51:44;;;;;;;29.63;7.67;;;;;;;6.35;73.28;102297.13;4979939;28;20560;-68
2022/02/26 00:54:09;;;;;;;31.87;6.13;;;;;;;6.17;73.81;102306.50;4979911;28;20518;-67
2022/02/26 00:56:35;;;;;;;28.30;6.43;;;;;;;5.90;74.58;102314.56;4980031;28;20178;-67
2022/02/26 00:59:00;;;;;;;27.03;7.20;;;;;;;5.83;74.50;102312.44;4979724;28;20490;-69
2022/02/26 01:01:25;;;;;;;34.47;6.23;;;;;;;5.98;74.09;102322.75;4980366;28;20176;-70
2022/02/26 01:03:51;;;;;;;28.60;6.73;;;;;;;5.94;74.45;102321.69;4979687;28;20263;-69
2022/02/26 01:06:16;;;;;;;27.23;8.17;;;;;;;6.03;74.41;102329.06;4979871;28;20176;-69
2022/02/26 01:08:41;;;;;;;25.97;7.30;;;;;;;5.83;74.43;102338.31;4994285;28;20251;-69
2022/02/26 01:11:07;;;;;;;18.97;7.27;;;;;;;5.85;75.03;102332.41;4999370;28;20541;-68
2022/02/26 01:13:32;;;;;;;27.00;7.10;;;;;;;5.83;74.46;102339.22;4999596;28;20194;-69
2022/02/26 01:15:58;;;;;;;30.37;8.03;;;;;;;5.67;74.91;102345.25;4999166;28;20171;-69
2022/02/26 01:18:24;;;;;;;25.90;7.40;;;;;;;5.89;74.42;102352.47;4999558;28;20474;-68
2022/02/26 01:20:49;;;;;;;24.07;9.13;;;;;;;5.30;75.44;102348.31;5000107;28;20403;-68
2022/02/26 01:23:14;;;;;;;28.43;7.37;;;;;;;5.73;75.54;102353.31;4999769;28;20273;-69
2022/02/26 01:25:40;;;;;;;10.70;4.40;;;;;;;11.91;77.16;102331.88;4998687;28;20214;-59
2022/02/26 01:28:05;;;;;;;15.43;5.70;;;;;;;12.86;65.23;102329.28;4998914;28;20529;-56
2022/02/26 01:30:30;;;;;;;27.33;7.50;;;;;;;9.82;60.22;102346.50;4998474;28;20565;-67
2022/02/26 01:32:56;;;;;;;24.50;7.10;;;;;;;8.02;64.68;102351.03;4998626;28;20258;-68
2022/02/26 01:35:22;;;;;;;25.57;6.63;;;;;;;6.69;68.08;102350.69;4999531;28;20241;-69
2022/02/26 01:37:47;;;;;;;17.80;6.60;;;;;;;6.53;70.13;102358.47;4998496;28;20508;-69
2022/02/26 01:40:13;;;;;;;21.23;6.47;;;;;;;6.33;70.72;102371.28;4998596;28;20501;-67
2022/02/26 01:42:39;;;;;;;27.77;7.20;;;;;;;6.36;71.25;102368.84;4998918;28;20210;-68
2022/02/26 01:45:11;;;;;;;20.27;6.43;;;;;;;6.38;70.87;102374.09;4998831;28;20258;-68
2022/02/26 01:47:36;;;;;;;28.17;6.43;;;;;;;6.07;71.53;102386.31;4998370;28;20722;-67
2022/02/26 01:50:01;;;;;;;20.47;7.83;;;;;;;5.99;71.66;102386.69;4982057;28;20470;-68
2022/02/26 01:52:27;;;;;;;22.10;7.20;;;;;;;6.27;71.14;102391.66;4998546;28;20171;-67
2022/02/26 01:54:52;;;;;;;27.20;6.90;;;;;;;6.28;71.29;102395.13;4998356;28;20194;-67
2022/02/26 01:57:17;;;;;;;24.77;8.07;;;;;;;6.02;72.03;102399.78;4982042;28;20172;-67
2022/02/26 01:59:43;;;;;;;30.70;7.60;;;;;;;5.98;72.15;102410.78;4998827;28;20537;-68
2022/02/26 02:02:08;;;;;;;28.87;7.37;;;;;;;6.16;71.83;102416.09;4998317;28;20187;-67
2022/02/26 02:04:34;;;;;;;22.20;6.93;;;;;;;6.27;71.63;102421.84;4998594;28;20195;-66
2022/02/26 02:06:59;;;;;;;24.77;7.90;;;;;;;6.00;71.59;102417.81;4998065;28;20194;-67
2022/02/26 02:09:25;;;;;;;16.50;6.00;;;;;;;6.07;71.53;102414.78;4998217;28;20176;-67
2022/02/26 02:11:51;;;;;;;23.03;6.47;;;;;;;6.16;72.05;102429.91;4998620;28;20259;-67
2022/02/26 02:14:16;;;;;;;27.00;6.00;;;;;;;5.86;72.28;102429.09;4981311;28;20176;-67
2022/02/26 02:16:42;;;;;;;34.10;7.67;;;;;;;5.73;72.61;102430.97;4998073;28;20227;-67
2022/02/26 02:19:09;;;;;;;30.13;7.23;;;;;;;5.72;72.66;102433.47;4998416;28;20208;-67
2022/02/26 02:21:36;;;;;;;19.77;8.83;;;;;;;5.79;72.81;102433.03;4998211;28;20179;-68
2022/02/26 02:24:04;;;;;;;21.47;6.30;;;;;;;5.68;72.48;102428.91;4998391;28;20469;-67
2022/02/26 02:26:30;;;;;;;28.97;7.00;;;;;;;5.83;71.81;102434.97;4998854;28;20491;-66
2022/02/26 02:28:56;;;;;;;25.07;6.77;;;;;;;5.74;72.13;102440.50;4980334;28;20505;-66
2022/02/26 02:31:22;;;;;;;27.77;6.90;;;;;;;5.78;72.08;102441.59;4978602;28;20420;-65
2022/02/26 02:33:49;;;;;;;22.17;7.40;;;;;;;5.79;72.01;102448.56;4994874;28;20418;-67
2022/02/26 02:36:15;;;;;;;24.27;7.73;;;;;;;5.35;73.43;102454.63;4981353;28;20233;-68
2022/02/26 02:38:40;;;;;;;31.17;7.13;;;;;;;5.65;73.93;102459.81;4999684;28;20694;-68
2022/02/26 02:41:06;;;;;;;24.53;6.50;;;;;;;5.36;74.32;102457.31;5002360;28;20176;-68
2022/02/26 02:43:32;;;;;;;32.20;7.77;;;;;;;5.46;73.56;102469.06;5001531;28;20167;-66
2022/02/26 02:45:58;;;;;;;28.27;7.30;;;;;;;5.40;73.92;102471.31;5001740;28;20207;-67
2022/02/26 02:48:24;;;;;;;18.77;5.80;;;;;;;5.37;73.80;102473.69;5002050;28;20414;-67
2022/02/26 02:50:49;;;;;;;26.43;6.20;;;;;;;5.57;73.64;102480.97;4984610;28;20482;-67
2022/02/26 02:53:18;;;;;;;29.53;6.90;;;;;;;5.93;72.33;102475.22;4984574;28;20175;-68
2022/02/26 02:55:45;;;;;;;31.37;7.17;;;;;;;5.74;72.18;102481.91;5001902;28;20159;-68
2022/02/26 02:58:10;;;;;;;21.73;6.30;;;;;;;5.70;72.07;102484.25;5001207;28;20414;-67
2022/02/26 03:00:35;;;;;;;26.97;6.80;;;;;;;5.36;72.84;102490.94;5001474;28;20514;-67
2022/02/26 03:03:01;;;;;;;22.70;7.03;;;;;;;5.31;73.45;102489.75;5001904;28;20183;-67
2022/02/26 03:05:26;;;;;;;19.43;6.40;;;;;;;5.34;73.66;102492.50;5001314;28;20222;-67
2022/02/26 03:07:52;;;;;;;31.63;7.63;;;;;;;5.34;73.79;102494.22;5001020;28;20385;-67
2022/02/26 03:10:18;;;;;;;23.47;6.53;;;;;;;5.37;74.56;102500.47;5001696;28;20385;-66
2022/02/26 03:12:49;;;;;;;18.10;6.17;;;;;;;5.73;73.31;102498.25;4984377;28;20190;-67
2022/02/26 03:15:14;;;;;;;26.37;6.43;;;;;;;5.57;72.58;102504.25;5001291;28;20174;-66
2022/02/26 03:17:40;;;;;;;25.00;6.87;;;;;;;5.62;73.33;102504.50;5001330;28;20704;-67
2022/02/26 03:20:05;;;;;;;27.17;7.40;;;;;;;5.77;72.23;102506.22;5001175;28;20168;-67
2022/02/26 03:22:31;;;;;;;26.60;6.30;;;;;;;5.59;72.89;102506.91;5000960;28;20180;-67
2022/02/26 03:24:56;;;;;;;30.13;8.00;;;;;;;5.32;73.50;102506.19;5001440;28;20254;-67
2022/02/26 03:27:21;;;;;;;24.67;5.90;;;;;;;5.52;72.78;102509.94;5000983;28;20176;-67
2022/02/26 03:29:47;;;;;;;29.23;7.10;;;;;;;5.90;72.26;102511.28;5001231;28;20188;-67
2022/02/26 03:32:12;;;;;;;24.23;6.37;;;;;;;5.19;73.26;102525.22;5001725;28;20180;-67
2022/02/26 03:34:37;;;;;;;35.57;7.23;;;;;;;5.27;74.00;102528.28;5000991;28;20184;-68
2022/02/26 03:37:03;;;;;;;35.83;7.60;;;;;;;5.36;73.96;102527.13;5000829;28;20222;-68
2022/02/26 03:39:31;;;;;;;19.90;6.00;;;;;;;5.32;72.92;102527.75;5001500;28;20171;-67
2022/02/26 03:41:58;;;;;;;22.77;6.40;;;;;;;5.46;73.04;102528.56;5000724;28;20488;-68
2022/02/26 03:44:24;;;;;;;15.97;5.77;;;;;;;5.50;73.22;102540.00;5000789;28;20520;-67
2022/02/26 03:46:49;;;;;;;26.50;7.20;;;;;;;5.48;72.52;102544.19;5001742;28;20688;-67
2022/02/26 03:49:14;;;;;;;44.27;7.07;;;;;;;5.23;73.59;102541.00;4999986;28;20187;-67
2022/02/26 03:51:40;;;;;;;30.47;7.07;;;;;;;5.37;73.38;102541.84;5000251;28;20168;-67
2022/02/26 03:54:06;;;;;;;20.00;6.20;;;;;;;5.27;73.65;102549.84;5001132;28;20186;-68
2022/02/26 03:56:31;;;;;;;23.77;6.90;;;;;;;4.95;73.39;102558.22;5000517;28;20183;-67
2022/02/26 03:58:57;;;;;;;25.20;7.00;;;;;;;5.46;72.70;102553.56;5000348;28;20553;-67
2022/02/26 04:01:22;;;;;;;18.83;6.90;;;;;;;5.56;72.05;102561.97;5000761;28;20183;-67
2022/02/26 04:03:48;;;;;;;22.93;7.03;;;;;;;5.31;72.33;102577.69;4983379;28;20179;-66
2022/02/26 04:06:14;;;;;;;18.77;6.00;;;;;;;5.36;72.50;102584.03;5000280;28;20569;-67
2022/02/26 04:08:39;;;;;;;22.73;7.00;;;;;;;5.13;73.41;102592.97;5000181;28;20234;-66
2022/02/26 04:11:04;;;;;;;19.83;7.30;;;;;;;5.30;72.87;102596.56;5000047;28;20180;-66
2022/02/26 04:13:30;;;;;;;26.37;6.37;;;;;;;5.49;72.61;102597.72;5000471;28;20172;-66
2022/02/26 04:15:55;;;;;;;20.23;6.73;;;;;;;5.06;72.78;102603.75;5000004;28;20270;-66
2022/02/26 04:18:20;;;;;;;21.17;6.20;;;;;;;5.06;72.52;102606.34;4999638;28;20183;-67
2022/02/26 04:20:46;;;;;;;22.43;5.73;;;;;;;5.35;72.27;102602.94;5000390;28;20218;-66
2022/02/26 04:23:11;;;;;;;25.87;6.33;;;;;;;5.16;72.41;102611.25;4999837;28;20247;-66
2022/02/26 04:25:36;;;;;;;21.67;6.40;;;;;;;4.77;73.82;102612.25;4999835;28;20215;-66
2022/02/26 04:28:03;;;;;;;18.27;6.00;;;;;;;5.16;73.54;102613.84;4999450;28;20179;-67
2022/02/26 04:30:28;;;;;;;24.30;6.40;;;;;;;5.09;73.24;102616.84;4999734;28;20197;-66
2022/02/26 04:32:53;;;;;;;22.67;6.63;;;;;;;4.88;73.96;102622.47;4999767;28;20418;-67
2022/02/26 04:35:19;;;;;;;19.97;5.60;;;;;;;5.03;73.22;102627.72;5000149;28;20195;-69
2022/02/26 04:37:44;;;;;;;17.57;5.60;;;;;;;5.03;72.93;102627.72;4999432;28;20175;-67
2022/02/26 04:40:11;;;;;;;22.57;6.13;;;;;;;5.37;72.43;102634.06;4999484;28;20175;-67
2022/02/26 04:42:37;;;;;;;23.17;6.23;;;;;;;5.17;72.22;102645.78;4983284;28;20495;-67
2022/02/26 04:45:04;;;;;;;28.63;6.53;;;;;;;5.33;71.95;102640.75;4999410;28;20509;-67
2022/02/26 04:47:29;;;;;;;22.50;5.70;;;;;;;5.09;72.18;102657.31;4999238;28;20670;-67
2022/02/26 04:49:54;;;;;;;26.23;8.20;;;;;;;5.26;72.32;102664.44;4999940;28;20533;-67
2022/02/26 04:52:19;;;;;;;20.40;7.37;;;;;;;5.19;72.36;102657.09;4999407;28;20176;-67
2022/02/26 04:54:45;;;;;;;32.57;7.43;;;;;;;4.94;72.40;102667.56;4999330;28;20183;-67
2022/02/26 04:57:10;;;;;;;19.70;5.97;;;;;;;4.99;72.32;102661.91;4999742;28;20175;-66
2022/02/26 04:59:35;;;;;;;20.30;6.20;;;;;;;5.38;72.09;102662.59;4999258;28;20230;-67
2022/02/26 05:02:01;;;;;;;21.37;6.73;;;;;;;5.19;71.68;102672.59;4999070;28;20266;-66
2022/02/26 05:04:26;;;;;;;15.83;6.27;;;;;;;5.23;71.99;102677.16;4999782;28;20203;-66
2022/02/26 05:06:51;;;;;;;19.20;5.83;;;;;;;5.13;71.73;102683.47;4999338;28;20180;-66
2022/02/26 05:09:17;;;;;;;21.03;6.23;;;;;;;5.12;72.42;102691.13;4999018;28;20175;-66
2022/02/26 05:11:42;;;;;;;20.93;6.50;;;;;;;5.25;72.05;102688.53;4999536;28;20171;-66
2022/02/26 05:14:07;;;;;;;23.17;5.80;;;;;;;4.81;72.09;102696.91;4998792;28;20202;-66
2022/02/26 05:16:32;;;;;;;24.77;6.57;;;;;;;4.97;72.50;102704.84;4998973;28;20566;-66
2022/02/26 05:18:58;;;;;;;25.30;6.10;;;;;;;4.82;72.98;102709.94;4999364;28;20203;-66
2022/02/26 05:21:23;;;;;;;20.80;6.00;;;;;;;4.97;72.84;102714.31;4982125;28;20180;-67
2022/02/26 05:23:48;;;;;;;30.03;5.83;;;;;;;5.02;72.11;102724.16;4998952;28;20179;-66
2022/02/26 05:26:14;;;;;;;27.63;6.73;;;;;;;5.10;71.90;102726.31;4999320;28;20514;-66
2022/02/26 05:28:40;;;;;;;15.70;6.20;;;;;;;5.22;71.78;102728.00;4998813;28;20438;-66
2022/02/26 05:31:05;;;;;;;24.87;6.43;;;;;;;5.22;71.31;102737.44;4998962;28;20171;-67
2022/02/26 05:33:31;;;;;;;26.80;6.73;;;;;;;4.91;71.63;102730.28;4999463;28;20172;-66
2022/02/26 05:35:57;;;;;;;27.43;8.03;;;;;;;4.81;72.59;102733.97;4998858;28;20274;-66
2022/02/26 05:38:22;;;;;;;14.53;5.90;;;;;;;4.63;73.36;102743.13;4981612;28;20517;-66
2022/02/26 05:40:47;;;;;;;17.70;5.80;;;;;;;5.03;72.17;102741.44;4998419;28;20179;-66
2022/02/26 05:43:13;;;;;;;32.83;7.00;;;;;;;5.15;71.57;102748.19;4998691;28;20262;-66
2022/02/26 05:45:39;;;;;;;21.20;6.00;;;;;;;4.80;72.07;102762.31;4998588;28;20273;-66
2022/02/26 05:48:05;;;;;;;22.77;6.43;;;;;;;4.47;72.99;102762.75;4982185;28;20183;-66
2022/02/26 05:50:31;;;;;;;27.23;6.57;;;;;;;4.32;74.54;102769.47;4998693;28;20426;-66
2022/02/26 05:52:56;;;;;;;19.07;5.73;;;;;;;4.68;73.48;102771.03;4998636;28;20223;-66
2022/02/26 05:55:22;;;;;;;25.77;5.70;;;;;;;4.66;73.64;102769.16;4999168;28;20266;-66
2022/02/26 05:57:47;;;;;;;19.43;5.73;;;;;;;4.67;73.22;102778.69;4998538;28;20419;-66
2022/02/26 06:00:13;;;;;;;19.90;6.43;;;;;;;4.79;73.26;102786.34;4998604;28;20247;-66
2022/02/26 06:02:38;;;;;;;17.33;5.83;;;;;;;4.76;72.49;102786.16;4998938;28;20176;-65
2022/02/26 06:05:04;;;;;;;28.30;6.80;;;;;;;4.83;72.28;102789.25;4998451;28;20211;-65
2022/02/26 06:07:30;;;;;;;39.80;7.43;;;;;;;4.93;72.54;102793.34;4981425;28;20219;-66
2022/02/26 06:09:56;;;;;;;27.13;7.57;;;;;;;4.74;72.42;102803.25;4982194;28;20184;-66
2022/02/26 06:12:21;;;;;;;26.77;7.63;;;;;;;4.60;73.77;102816.13;4998379;28;20418;-65
2022/02/26 06:14:46;;;;;;;22.27;6.50;;;;;;;4.70;73.55;102817.66;5001944;28;20167;-66
2022/02/26 06:17:12;;;;;;;11.90;5.73;;;;;;;4.56;74.05;102819.31;5002749;28;20243;-66
2022/02/26 06:19:37;;;;;;;28.50;7.27;;;;;;;4.60;73.65;102820.38;5002497;28;20415;-67
2022/02/26 06:22:03;;;;;;;21.03;5.90;;;;;;;4.77;73.28;102824.13;4985258;28;20230;-67
2022/02/26 06:24:28;;;;;;;34.93;7.00;;;;;;;4.74;73.11;102823.94;5002551;28;20207;-65
2022/02/26 06:26:53;;;;;;;20.37;7.33;;;;;;;4.65;74.12;102840.56;5001815;28;20176;-66
2022/02/26 06:29:19;;;;;;;18.33;6.43;;;;;;;4.81;73.43;102839.03;5002049;28;20237;-66
2022/02/26 06:31:44;;;;;;;21.20;6.00;;;;;;;4.98;72.38;102833.31;5002881;28;20199;-66
2022/02/26 06:34:09;;;;;;;25.80;7.00;;;;;;;4.83;72.89;102851.28;5001856;28;20214;-66
2022/02/26 06:36:36;;;;;;;30.77;7.27;;;;;;;4.74;72.77;102850.66;5001746;28;20494;-67
2022/02/26 06:39:02;;;;;;;23.47;6.80;;;;;;;4.96;72.51;102857.25;5001921;28;20183;-66
2022/02/26 06:41:29;;;;;;;32.93;7.00;;;;;;;4.91;73.09;102854.34;5001743;28;20506;-66
2022/02/26 06:43:54;;;;;;;22.90;6.70;;;;;;;5.01;72.39;102855.88;5001929;28;20498;-66
2022/02/26 06:46:20;;;;;;;19.93;6.60;;;;;;;5.14;71.83;102867.91;4985238;28;20891;-67
2022/02/26 06:48:45;;;;;;;22.37;6.80;;;;;;;5.20;72.27;102863.16;5001760;28;20175;-66
2022/02/26 06:51:10;;;;;;;30.07;7.30;;;;;;;5.22;71.71;102872.81;5001678;28;20180;-66
2022/02/26 06:53:35;;;;;;;22.60;6.20;;;;;;;5.02;72.21;102875.75;5002110;28;20183;-67
2022/02/26 06:56:01;;;;;;;26.70;7.00;;;;;;;5.31;71.72;102877.69;5001344;28;20175;-66
2022/02/26 06:58:26;;;;;;;19.77;6.67;;;;;;;5.45;71.71;102880.28;5001215;28;20191;-66
2022/02/26 07:00:51;;;;;;;18.77;5.93;;;;;;;5.57;70.44;102881.06;5001924;28;20175;-66
2022/02/26 07:03:17;;;;;;;19.30;5.80;;;;;;;5.71;70.08;102875.09;5001402;28;20553;-66
2022/02/26 07:05:42;;;;;;;14.87;5.73;;;;;;;5.71;70.00;102871.59;5001326;28;20483;-66
2022/02/26 07:08:07;;;;;;;15.87;5.73;;;;;;;5.87;69.46;102881.25;5001243;28;20234;-66
2022/02/26 07:10:33;;;;;;;29.87;7.20;;;;;;;5.48;70.69;102880.47;5001359;28;20211;-66
2022/02/26 07:12:58;;;;;;;22.97;6.70;;;;;;;5.72;69.96;102884.66;5001357;28;20179;-67
2022/02/26 07:15:23;;;;;;;15.37;5.90;;;;;;;7.65;66.06;102878.88;5001266;28;20210;-66
2022/02/26 07:17:48;;;;;;;19.20;6.70;;;;;;;9.24;60.42;102880.34;5000827;28;20203;-67
2022/02/26 07:20:14;;;;;;;18.87;5.73;;;;;;;10.38;55.87;102874.41;5001523;28;20171;-68
2022/02/26 07:22:39;;;;;;;15.30;6.00;;;;;;;9.97;54.43;102886.41;5000920;28;20175;-68
2022/02/26 07:25:05;;;;;;;26.70;6.27;;;;;;;11.01;52.73;102884.09;4983794;28;20279;-67
2022/02/26 07:27:31;;;;;;;16.80;5.40;;;;;;;12.02;51.44;102886.41;5001400;28;20521;-67
2022/02/26 07:29:56;;;;;;;16.10;5.73;;;;;;;11.56;50.14;102884.59;5000974;28;20421;-67
2022/02/26 07:32:21;;;;;;;17.17;5.80;;;;;;;12.17;49.13;102891.34;5000812;28;20322;-68
2022/02/26 07:34:47;;;;;;;12.17;5.60;;;;;;;12.26;48.18;102894.31;5001269;28;20262;-69
2022/02/26 07:37:12;;;;;;;15.33;5.93;;;;;;;12.93;46.56;102899.28;5000429;28;20183;-68
2022/02/26 07:39:37;;;;;;;13.60;5.83;;;;;;;12.77;47.08;102904.00;4983707;28;20269;-68
2022/02/26 07:42:04;;;;;;;18.80;6.20;;;;;;;12.46;47.12;102908.13;5000902;28;20214;-69
2022/02/26 07:44:29;;;;;;;21.80;6.17;;;;;;;13.18;45.76;102908.88;5000432;28;20541;-67
2022/02/26 07:46:55;;;;;;;14.70;6.37;;;;;;;12.68;46.35;102908.91;5000458;28;20426;-68
2022/02/26 07:49:20;;;;;;;18.37;6.53;;;;;;;13.85;44.49;102909.28;5001051;28;20224;-68
2022/02/26 07:51:45;;;;;;;13.93;6.10;;;;;;;12.94;45.78;102915.03;5000379;28;20176;-67
2022/02/26 07:54:11;;;;;;;13.80;5.87;;;;;;;13.20;45.37;102916.78;5000395;28;20238;-68
2022/02/26 07:56:36;;;;;;;14.97;6.60;;;;;;;13.39;44.57;102924.44;5000747;28;20195;-68
2022/02/26 07:59:01;;;;;;;17.07;6.30;;;;;;;14.06;43.78;102935.31;5000433;28;20274;-69
2022/02/26 08:01:27;;;;;;;13.97;5.77;;;;;;;13.93;43.61;102934.03;5000250;28;20163;-68
2022/02/26 08:03:52;;;;;;;14.23;5.87;;;;;;;13.74;43.81;102943.03;5000900;28;20171;-69
2022/02/26 08:06:18;;;;;;;18.47;6.50;;;;;;;14.67;42.57;102940.59;5000201;28;20208;-68
2022/02/26 08:08:43;;;;;;;17.87;6.90;;;;;;;13.81;43.95;102945.03;4999789;28;20231;-67
2022/02/26 08:11:08;;;;;;;23.83;7.73;;;;;;;14.88;42.01;102942.03;5000798;28;20487;-68
2022/02/26 08:13:34;;;;;;;17.93;6.93;;;;;;;14.79;41.70;102950.56;5000164;28;20171;-68
2022/02/26 08:15:59;;;;;;;18.93;5.97;;;;;;;14.90;41.57;102943.84;5000081;28;20554;-68
2022/02/26 08:18:24;;;;;;;13.07;5.80;;;;;;;13.85;43.05;102969.59;5000271;28;20270;-68
2022/02/26 08:20:49;;;;;;;18.97;6.23;;;;;;;15.39;40.73;102964.38;5000157;28;20178;-68
2022/02/26 08:23:15;;;;;;;17.40;7.80;;;;;;;14.07;43.71;102973.81;4999848;28;20184;-69
2022/02/26 08:25:40;;;;;;;13.03;6.13;;;;;;;14.92;41.87;102968.41;5000480;28;20222;-69
2022/02/26 08:28:06;;;;;;;17.10;6.87;;;;;;;15.15;41.54;102963.78;4999781;28;20291;-68
2022/02/26 08:30:31;;;;;;;14.97;7.33;;;;;;;14.75;41.71;102970.59;4997111;28;20189;-67
2022/02/26 08:32:58;;;;;;;16.07;5.93;;;;;;;15.49;40.69;102967.28;4986923;28;20186;-68
2022/02/26 08:35:23;;;;;;;13.67;5.90;;;;;;;14.50;42.03;102974.19;4990199;28;20184;-68
2022/02/26 08:37:49;;;;;;;17.37;7.07;;;;;;;14.39;42.02;102981.75;4979799;28;20427;-67
2022/02/26 08:40:15;;;;;;;15.37;6.40;;;;;;;14.50;42.40;102984.69;4994214;28;20179;-68
2022/02/26 08:42:41;;;;;;;21.70;6.63;;;;;;;14.04;43.07;103002.53;4999449;28;20234;-68
2022/02/26 08:45:07;;;;;;;16.07;6.20;;;;;;;14.51;41.84;102994.34;4999379;28;20473;-67
2022/02/26 08:47:33;;;;;;;16.67;6.10;;;;;;;15.01;41.31;102995.81;4995892;28;20439;-68
2022/02/26 08:50:00;;;;;;;13.17;5.60;;;;;;;15.48;39.98;102986.53;4979149;28;20549;-68
2022/02/26 08:52:26;;;;;;;14.57;5.90;;;;;;;14.87;40.55;102995.41;4979858;28;20419;-69
2022/02/26 08:54:52;;;;;;;15.00;6.30;;;;;;;14.87;40.43;102995.41;4979463;28;20391;-68
2022/02/26 08:57:18;;;;;;;18.87;5.40;;;;;;;15.44;40.14;102994.31;4979717;28;20564;-69
2022/02/26 08:59:43;;;;;;;20.77;6.40;;;;;;;15.18;39.91;102998.88;4979811;28;20172;-68
2022/02/26 09:02:08;;;;;;;17.37;6.63;;;;;;;15.58;38.85;102986.75;4980318;28;20557;-69
2022/02/26 09:04:34;;;;;;;17.87;6.47;;;;;;;15.54;40.00;102995.44;4983256;28;20482;-69
2022/02/26 09:07:00;;;;;;;13.93;5.70;;;;;;;15.91;39.06;102998.97;4998916;28;20311;-69
2022/02/26 09:09:25;;;;;;;12.27;5.80;;;;;;;15.57;39.41;103003.38;4999506;28;20656;-69
2022/02/26 09:11:50;;;;;;;16.10;5.83;;;;;;;15.21;39.35;103002.47;4998925;28;20168;-70
2022/02/26 09:14:16;;;;;;;19.87;6.83;;;;;;;15.51;38.34;103016.38;4998916;28;20257;-69
2022/02/26 09:16:41;;;;;;;17.00;6.80;;;;;;;15.76;38.09;103013.53;4999358;28;20179;-68
2022/02/26 09:19:06;;;;;;;17.63;6.80;;;;;;;15.82;38.69;103010.19;4998751;28;20226;-68
2022/02/26 09:21:32;;;;;;;8.90;4.93;;;;;;;16.06;37.46;103009.88;4998814;28;20168;-68
2022/02/26 09:23:57;;;;;;;13.33;5.23;;;;;;;15.65;38.20;103010.63;4999651;28;20167;-68
2022/02/26 09:26:24;;;;;;;13.97;5.40;;;;;;;15.60;39.05;103019.22;4998830;28;20203;-67
2022/02/26 09:28:50;;;;;;;8.90;5.33;;;;;;;16.82;36.53;103017.66;4998472;28;20175;-68
2022/02/26 09:31:15;;;;;;;11.80;5.53;;;;;;;16.38;36.87;103020.22;4999034;28;20410;-69
2022/02/26 09:33:41;;;;;;;13.80;5.00;;;;;;;16.76;35.95;103022.78;4998641;28;20175;-65
2022/02/26 09:36:08;;;;;;;14.47;6.77;;;;;;;16.19;37.51;103018.94;4998722;28;20179;-66
2022/02/26 09:38:34;;;;;;;13.53;5.10;;;;;;;16.10;36.53;103018.72;4996515;28;20164;-65
2022/02/26 09:41:01;;;;;;;12.93;5.50;;;;;;;17.22;34.66;103016.69;4979218;28;20687;-67
2022/02/26 09:43:27;;;;;;;15.00;5.20;;;;;;;17.23;34.13;103023.75;4979006;28;20708;-66
2022/02/26 09:45:54;;;;;;;12.63;5.20;;;;;;;16.28;35.62;103024.41;4979585;28;20799;-69
2022/02/26 09:48:21;;;;;;;12.60;4.97;;;;;;;16.63;35.25;103026.94;4980306;28;20801;-68
2022/02/26 09:50:49;;;;;;;10.70;4.77;;;;;;;16.79;34.46;103028.13;4983093;28;20451;-68
2022/02/26 09:53:14;;;;;;;11.03;5.43;;;;;;;16.87;34.74;103033.53;4983411;28;20435;-69
2022/02/26 09:55:40;;;;;;;14.30;5.00;;;;;;;15.72;36.52;103039.69;4983126;28;20419;-69
2022/02/26 09:58:05;;;;;;;10.70;4.97;;;;;;;17.34;34.94;103027.44;4983183;28;20168;-69
2022/02/26 10:00:31;;;;;;;12.23;5.33;;;;;;;16.15;36.01;103032.88;4983327;28;20250;-69
2022/02/26 10:02:57;;;;;;;9.30;4.63;;;;;;;16.39;34.93;103027.28;4983062;28;20190;-69
2022/02/26 10:05:22;;;;;;;12.40;5.07;;;;;;;16.66;35.48;103034.00;4982786;28;20474;-69
2022/02/26 10:07:50;;;;;;;13.20;5.60;;;;;;;17.68;34.40;103033.31;4990421;28;20249;-67
2022/02/26 10:10:20;;;;;;;10.77;4.50;;;;;;;17.36;33.65;103041.56;5002465;28;20210;-68
2022/02/26 10:12:51;;;;;;;8.00;4.63;;;;;;;17.48;32.88;103041.78;5002352;28;20423;-68
2022/02/26 10:15:38;;;;;;;6.53;4.20;;;;;;;17.70;32.36;103054.44;4985435;28;20468;-67
2022/02/26 10:18:11;;;;;;;9.70;4.10;;;;;;;17.84;31.65;103056.44;5002009;28;20529;-70
2022/02/26 10:20:43;;;;;;;11.80;4.77;;;;;;;17.35;32.88;103050.31;5002260;28;20418;-70
2022/02/26 10:23:12;;;;;;;9.10;4.60;;;;;;;17.87;31.66;103054.72;5001897;28;20828;-70
2022/02/26 10:25:37;;;;;;;14.30;9.20;;;;;;;16.46;34.06;103060.78;5001910;28;20552;-70
2022/02/26 10:28:03;;;;;;;6.83;4.67;;;;;;;16.82;33.17;103058.94;4984872;28;20428;-69
2022/02/26 10:30:35;;;;;;;10.60;4.80;;;;;;;16.50;32.79;103057.34;5002621;28;20415;-69
2022/02/26 10:33:23;;;;;;;10.60;5.43;;;;;;;15.68;34.05;103062.38;5001873;28;20556;-67
2022/02/26 10:35:55;;;;;;;7.87;4.43;;;;;;;15.82;34.07;103071.56;5002073;28;20816;-68
2022/02/26 10:38:32;;;;;;;7.73;4.03;;;;;;;17.33;32.39;103058.22;5001685;28;20478;-67
2022/02/26 10:41:06;;;;;;;5.80;3.43;;;;;;;17.35;30.74;103063.50;5001861;28;20407;-67
2022/02/26 10:43:48;;;;;;;4.93;3.43;;;;;;;16.28;31.68;103068.28;5001809;28;20420;-67
2022/02/26 10:46:20;;;;;;;5.30;4.13;;;;;;;16.02;32.81;103070.28;5001684;28;20493;-66
2022/02/26 10:48:46;;;;;;;9.50;4.57;;;;;;;16.83;31.58;103077.41;4984785;28;20414;-68
2022/02/26 10:51:16;;;;;;;4.93;3.73;;;;;;;17.77;30.81;103074.81;4984663;28;20419;-68
2022/02/26 10:53:43;;;;;;;8.90;4.30;;;;;;;17.19;31.42;103061.44;5001659;28;20461;-70
2022/02/26 10:56:10;;;;;;;7.67;4.00;;;;;;;16.71;31.11;103066.59;5001530;28;20429;-69
2022/02/26 10:58:36;;;;;;;6.50;4.23;;;;;;;16.47;31.53;103057.28;5001523;28;20684;-68
2022/02/26 11:01:06;;;;;;;6.93;4.30;;;;;;;17.03;31.91;103058.50;5001938;28;20419;-69
2022/02/26 11:03:32;;;;;;;8.57;5.10;;;;;;;17.04;31.98;103055.00;5001534;28;20458;-69
2022/02/26 11:05:58;;;;;;;6.70;4.00;;;;;;;16.09;32.77;103061.69;5001760;28;20489;-73
2022/02/26 11:08:24;;;;;;;5.50;3.83;;;;;;;15.95;32.97;103056.97;5001155;28;20910;-70
2022/02/26 11:10:51;;;;;;;6.83;4.30;;;;;;;16.60;31.42;103057.56;5001298;28;20203;-66
2022/02/26 11:13:17;;;;;;;8.13;3.80;;;;;;;16.23;33.14;103056.75;5001825;28;20481;-69
2022/02/26 11:15:43;;;;;;;8.37;3.83;;;;;;;16.49;32.71;103050.34;4984349;28;20434;-67
2022/02/26 11:18:09;;;;;;;6.27;3.90;;;;;;;15.96;33.51;103055.22;4984110;28;20527;-67
2022/02/26 11:20:35;;;;;;;6.77;4.30;;;;;;;16.10;33.20;103058.19;4984614;28;20414;-66